sensor_id;sensor_type;location;lat;lon;timestamp;temperature;humidity
74540;SHT31;66042;51.090;-115.340;2023-08-06T00:01:46;34.57;22.59
74540;SHT31;66042;51.090;-115.340;2023-08-06T00:04:13;34.05;22.35
74540;SHT31;66042;51.090;-115.340;2023-08-06T00:06:40;33.84;22.52
74540;SHT31;66042;51.090;-115.340;2023-08-06T00:09:06;33.64;22.68
74540;SHT31;66042;51.090;-115.340;2023-08-06T00:11:33;33.56;23.13
74540;SHT31;66042;51.090;-115.340;2023-08-06T00:14:01;33.74;23.07
74540;SHT31;66042;51.090;-115.340;2023-08-06T00:16:28;33.88;23.03
74540;SHT31;66042;51.090;-115.340;2023-08-06T00:18:55;33.87;23.46
74540;SHT31;66042;51.090;-115.340;2023-08-06T00:21:25;33.76;23.91
74540;SHT31;66042;51.090;-115.340;2023-08-06T00:23:52;33.33;24.33
74540;SHT31;66042;51.090;-115.340;2023-08-06T00:26:19;32.91;24.73
74540;SHT31;66042;51.090;-115.340;2023-08-06T00:28:46;32.50;25.06
74540;SHT31;66042;51.090;-115.340;2023-08-06T00:31:13;32.05;25.44
74540;SHT31;66042;51.090;-115.340;2023-08-06T00:33:39;31.71;26.12
74540;SHT31;66042;51.090;-115.340;2023-08-06T00:36:07;31.55;26.50
74540;SHT31;66042;51.090;-115.340;2023-08-06T00:38:34;31.42;26.77
74540;SHT31;66042;51.090;-115.340;2023-08-06T00:41:00;31.21;26.96
74540;SHT31;66042;51.090;-115.340;2023-08-06T00:43:27;30.98;26.69
74540;SHT31;66042;51.090;-115.340;2023-08-06T00:45:55;30.70;27.08
74540;SHT31;66042;51.090;-115.340;2023-08-06T00:48:22;30.47;27.54
74540;SHT31;66042;51.090;-115.340;2023-08-06T00:50:49;30.27;27.35
74540;SHT31;66042;51.090;-115.340;2023-08-06T00:53:16;30.07;27.53
74540;SHT31;66042;51.090;-115.340;2023-08-06T00:55:44;29.81;28.04
74540;SHT31;66042;51.090;-115.340;2023-08-06T00:58:12;29.59;28.39
74540;SHT31;66042;51.090;-115.340;2023-08-06T01:00:41;29.33;28.58
74540;SHT31;66042;51.090;-115.340;2023-08-06T01:03:08;29.03;28.82
74540;SHT31;66042;51.090;-115.340;2023-08-06T01:05:35;28.78;29.22
74540;SHT31;66042;51.090;-115.340;2023-08-06T01:08:06;28.58;29.49
74540;SHT31;66042;51.090;-115.340;2023-08-06T01:14:08;28.04;30.39
74540;SHT31;66042;51.090;-115.340;2023-08-06T01:17:12;27.97;30.55
74540;SHT31;66042;51.090;-115.340;2023-08-06T01:19:40;27.90;30.57
74540;SHT31;66042;51.090;-115.340;2023-08-06T01:22:07;27.76;30.64
74540;SHT31;66042;51.090;-115.340;2023-08-06T01:24:34;27.65;30.59
74540;SHT31;66042;51.090;-115.340;2023-08-06T01:27:11;27.63;30.69
74540;SHT31;66042;51.090;-115.340;2023-08-06T01:29:56;27.58;30.87
74540;SHT31;66042;51.090;-115.340;2023-08-06T01:32:42;27.56;30.95
74540;SHT31;66042;51.090;-115.340;2023-08-06T01:35:14;27.54;30.84
74540;SHT31;66042;51.090;-115.340;2023-08-06T01:37:45;27.41;31.15
74540;SHT31;66042;51.090;-115.340;2023-08-06T01:40:14;27.32;31.26
74540;SHT31;66042;51.090;-115.340;2023-08-06T01:42:41;27.20;31.16
74540;SHT31;66042;51.090;-115.340;2023-08-06T01:45:07;27.07;31.44
74540;SHT31;66042;51.090;-115.340;2023-08-06T01:47:35;26.99;31.73
74540;SHT31;66042;51.090;-115.340;2023-08-06T01:50:02;26.91;32.08
74540;SHT31;66042;51.090;-115.340;2023-08-06T01:52:30;26.87;32.03
74540;SHT31;66042;51.090;-115.340;2023-08-06T01:54:57;26.82;32.30
74540;SHT31;66042;51.090;-115.340;2023-08-06T01:57:24;26.73;32.17
74540;SHT31;66042;51.090;-115.340;2023-08-06T01:59:51;26.61;32.33
74540;SHT31;66042;51.090;-115.340;2023-08-06T02:02:18;26.48;32.81
74540;SHT31;66042;51.090;-115.340;2023-08-06T02:04:45;26.33;32.99
74540;SHT31;66042;51.090;-115.340;2023-08-06T02:07:11;26.16;32.85
74540;SHT31;66042;51.090;-115.340;2023-08-06T02:09:38;25.86;33.07
74540;SHT31;66042;51.090;-115.340;2023-08-06T02:12:05;25.68;33.49
74540;SHT31;66042;51.090;-115.340;2023-08-06T02:14:33;25.54;33.88
74540;SHT31;66042;51.090;-115.340;2023-08-06T02:17:00;25.36;33.84
74540;SHT31;66042;51.090;-115.340;2023-08-06T02:19:28;25.23;34.20
74540;SHT31;66042;51.090;-115.340;2023-08-06T02:21:54;25.16;34.38
74540;SHT31;66042;51.090;-115.340;2023-08-06T02:24:21;25.05;34.49
74540;SHT31;66042;51.090;-115.340;2023-08-06T02:26:48;24.99;34.77
74540;SHT31;66042;51.090;-115.340;2023-08-06T02:29:17;24.94;34.95
74540;SHT31;66042;51.090;-115.340;2023-08-06T02:31:44;24.90;35.32
74540;SHT31;66042;51.090;-115.340;2023-08-06T02:34:11;24.80;35.32
74540;SHT31;66042;51.090;-115.340;2023-08-06T02:36:38;24.68;35.20
74540;SHT31;66042;51.090;-115.340;2023-08-06T02:39:06;24.63;35.43
74540;SHT31;66042;51.090;-115.340;2023-08-06T02:41:32;24.55;35.64
74540;SHT31;66042;51.090;-115.340;2023-08-06T02:43:59;24.42;36.12
74540;SHT31;66042;51.090;-115.340;2023-08-06T02:46:26;24.29;36.52
74540;SHT31;66042;51.090;-115.340;2023-08-06T02:48:53;24.23;36.86
74540;SHT31;66042;51.090;-115.340;2023-08-06T02:51:20;24.20;37.16
74540;SHT31;66042;51.090;-115.340;2023-08-06T02:53:48;24.16;37.22
74540;SHT31;66042;51.090;-115.340;2023-08-06T02:56:15;24.09;37.20
74540;SHT31;66042;51.090;-115.340;2023-08-06T02:58:42;23.98;37.43
74540;SHT31;66042;51.090;-115.340;2023-08-06T03:01:09;23.87;37.57
74540;SHT31;66042;51.090;-115.340;2023-08-06T03:03:36;23.81;37.53
74540;SHT31;66042;51.090;-115.340;2023-08-06T03:06:03;23.70;37.57
74540;SHT31;66042;51.090;-115.340;2023-08-06T03:08:29;23.57;37.55
74540;SHT31;66042;51.090;-115.340;2023-08-06T03:10:56;23.52;37.88
74540;SHT31;66042;51.090;-115.340;2023-08-06T03:13:24;23.46;37.84
74540;SHT31;66042;51.090;-115.340;2023-08-06T03:15:52;23.42;38.21
74540;SHT31;66042;51.090;-115.340;2023-08-06T03:18:24;23.37;38.41
74540;SHT31;66042;51.090;-115.340;2023-08-06T03:20:52;23.27;38.49
74540;SHT31;66042;51.090;-115.340;2023-08-06T03:23:19;23.23;38.59
74540;SHT31;66042;51.090;-115.340;2023-08-06T03:25:46;23.11;39.10
74540;SHT31;66042;51.090;-115.340;2023-08-06T03:28:13;23.02;39.09
74540;SHT31;66042;51.090;-115.340;2023-08-06T03:30:40;22.91;39.47
74540;SHT31;66042;51.090;-115.340;2023-08-06T03:33:07;22.81;39.68
74540;SHT31;66042;51.090;-115.340;2023-08-06T03:35:33;22.75;39.99
74540;SHT31;66042;51.090;-115.340;2023-08-06T03:38:00;22.68;40.26
74540;SHT31;66042;51.090;-115.340;2023-08-06T03:40:27;22.59;40.52
74540;SHT31;66042;51.090;-115.340;2023-08-06T03:42:54;22.47;40.84
74540;SHT31;66042;51.090;-115.340;2023-08-06T03:45:21;22.41;40.93
74540;SHT31;66042;51.090;-115.340;2023-08-06T03:47:48;22.36;41.12
74540;SHT31;66042;51.090;-115.340;2023-08-06T03:50:15;22.33;41.36
74540;SHT31;66042;51.090;-115.340;2023-08-06T03:52:42;22.25;41.40
74540;SHT31;66042;51.090;-115.340;2023-08-06T03:55:09;22.21;41.60
74540;SHT31;66042;51.090;-115.340;2023-08-06T03:57:37;22.13;41.97
74540;SHT31;66042;51.090;-115.340;2023-08-06T04:00:04;22.05;42.20
74540;SHT31;66042;51.090;-115.340;2023-08-06T04:02:32;21.99;42.25
74540;SHT31;66042;51.090;-115.340;2023-08-06T04:05:00;21.93;42.63
74540;SHT31;66042;51.090;-115.340;2023-08-06T04:07:27;21.79;42.84
74540;SHT31;66042;51.090;-115.340;2023-08-06T04:09:54;21.73;42.90
74540;SHT31;66042;51.090;-115.340;2023-08-06T04:12:26;21.68;43.07
74540;SHT31;66042;51.090;-115.340;2023-08-06T04:14:53;21.64;43.22
74540;SHT31;66042;51.090;-115.340;2023-08-06T04:17:23;21.59;43.33
74540;SHT31;66042;51.090;-115.340;2023-08-06T04:19:51;21.52;43.65
74540;SHT31;66042;51.090;-115.340;2023-08-06T04:22:20;21.47;43.71
74540;SHT31;66042;51.090;-115.340;2023-08-06T04:24:47;21.40;43.87
74540;SHT31;66042;51.090;-115.340;2023-08-06T04:27:14;21.36;43.93
74540;SHT31;66042;51.090;-115.340;2023-08-06T04:29:42;21.32;44.04
74540;SHT31;66042;51.090;-115.340;2023-08-06T04:32:10;21.28;44.26
74540;SHT31;66042;51.090;-115.340;2023-08-06T04:34:37;21.24;44.46
74540;SHT31;66042;51.090;-115.340;2023-08-06T04:37:04;21.21;44.42
74540;SHT31;66042;51.090;-115.340;2023-08-06T04:39:31;21.17;44.47
74540;SHT31;66042;51.090;-115.340;2023-08-06T04:41:58;21.15;44.63
74540;SHT31;66042;51.090;-115.340;2023-08-06T04:44:25;21.12;44.89
74540;SHT31;66042;51.090;-115.340;2023-08-06T04:46:52;21.05;45.22
74540;SHT31;66042;51.090;-115.340;2023-08-06T04:49:22;20.98;45.42
74540;SHT31;66042;51.090;-115.340;2023-08-06T04:51:50;20.95;45.41
74540;SHT31;66042;51.090;-115.340;2023-08-06T04:54:17;20.95;45.47
74540;SHT31;66042;51.090;-115.340;2023-08-06T04:56:44;20.94;45.62
74540;SHT31;66042;51.090;-115.340;2023-08-06T04:59:11;20.90;45.57
74540;SHT31;66042;51.090;-115.340;2023-08-06T05:01:38;20.84;45.18
74540;SHT31;66042;51.090;-115.340;2023-08-06T05:04:06;20.77;45.08
74540;SHT31;66042;51.090;-115.340;2023-08-06T05:06:32;20.76;44.91
74540;SHT31;66042;51.090;-115.340;2023-08-06T05:08:59;20.76;44.83
74540;SHT31;66042;51.090;-115.340;2023-08-06T05:11:27;20.75;45.12
74540;SHT31;66042;51.090;-115.340;2023-08-06T05:13:53;20.69;45.22
74540;SHT31;66042;51.090;-115.340;2023-08-06T05:16:21;20.65;44.97
74540;SHT31;66042;51.090;-115.340;2023-08-06T05:18:48;20.61;45.04
74540;SHT31;66042;51.090;-115.340;2023-08-06T05:21:15;20.59;45.25
74540;SHT31;66042;51.090;-115.340;2023-08-06T05:23:45;20.58;45.53
74540;SHT31;66042;51.090;-115.340;2023-08-06T05:26:11;20.55;45.52
74540;SHT31;66042;51.090;-115.340;2023-08-06T05:28:40;20.52;45.40
74540;SHT31;66042;51.090;-115.340;2023-08-06T05:31:07;20.49;45.50
74540;SHT31;66042;51.090;-115.340;2023-08-06T05:33:34;20.47;46.13
74540;SHT31;66042;51.090;-115.340;2023-08-06T05:36:01;20.46;47.34
74540;SHT31;66042;51.090;-115.340;2023-08-06T05:38:29;20.44;48.66
74540;SHT31;66042;51.090;-115.340;2023-08-06T05:40:59;20.31;50.11
74540;SHT31;66042;51.090;-115.340;2023-08-06T05:43:26;20.22;50.74
74540;SHT31;66042;51.090;-115.340;2023-08-06T05:45:55;20.16;50.72
74540;SHT31;66042;51.090;-115.340;2023-08-06T05:48:32;20.11;51.49
74540;SHT31;66042;51.090;-115.340;2023-08-06T05:50:59;20.08;51.64
74540;SHT31;66042;51.090;-115.340;2023-08-06T05:53:26;20.06;52.00
74540;SHT31;66042;51.090;-115.340;2023-08-06T05:55:53;19.98;52.95
74540;SHT31;66042;51.090;-115.340;2023-08-06T05:58:20;19.92;52.76
74540;SHT31;66042;51.090;-115.340;2023-08-06T06:00:49;19.86;52.65
74540;SHT31;66042;51.090;-115.340;2023-08-06T06:03:17;19.78;52.16
74540;SHT31;66042;51.090;-115.340;2023-08-06T06:05:44;19.70;52.03
74540;SHT31;66042;51.090;-115.340;2023-08-06T06:08:11;19.64;52.37
74540;SHT31;66042;51.090;-115.340;2023-08-06T06:10:38;19.55;52.53
74540;SHT31;66042;51.090;-115.340;2023-08-06T06:13:05;19.51;52.21
74540;SHT31;66042;51.090;-115.340;2023-08-06T06:15:32;19.47;52.37
74540;SHT31;66042;51.090;-115.340;2023-08-06T06:17:59;19.39;52.83
74540;SHT31;66042;51.090;-115.340;2023-08-06T06:20:26;19.29;52.80
74540;SHT31;66042;51.090;-115.340;2023-08-06T06:22:53;19.23;53.02
74540;SHT31;66042;51.090;-115.340;2023-08-06T06:25:20;19.11;53.08
74540;SHT31;66042;51.090;-115.340;2023-08-06T06:27:46;19.05;53.22
74540;SHT31;66042;51.090;-115.340;2023-08-06T06:30:13;19.01;53.50
74540;SHT31;66042;51.090;-115.340;2023-08-06T06:32:41;18.95;53.61
74540;SHT31;66042;51.090;-115.340;2023-08-06T06:35:08;18.90;53.87
74540;SHT31;66042;51.090;-115.340;2023-08-06T06:37:36;18.88;53.87
74540;SHT31;66042;51.090;-115.340;2023-08-06T06:40:03;18.85;53.95
74540;SHT31;66042;51.090;-115.340;2023-08-06T06:42:30;18.87;53.78
74540;SHT31;66042;51.090;-115.340;2023-08-06T06:44:57;18.90;53.63
74540;SHT31;66042;51.090;-115.340;2023-08-06T06:47:24;18.93;53.52
74540;SHT31;66042;51.090;-115.340;2023-08-06T06:49:51;18.93;53.59
74540;SHT31;66042;51.090;-115.340;2023-08-06T06:52:21;18.89;53.88
74540;SHT31;66042;51.090;-115.340;2023-08-06T06:54:48;18.86;53.93
74540;SHT31;66042;51.090;-115.340;2023-08-06T06:57:15;18.82;54.04
74540;SHT31;66042;51.090;-115.340;2023-08-06T06:59:42;18.78;54.26
74540;SHT31;66042;51.090;-115.340;2023-08-06T07:02:09;18.72;54.26
74540;SHT31;66042;51.090;-115.340;2023-08-06T07:04:36;18.69;54.37
74540;SHT31;66042;51.090;-115.340;2023-08-06T07:07:03;18.66;54.42
74540;SHT31;66042;51.090;-115.340;2023-08-06T07:09:30;18.65;54.37
74540;SHT31;66042;51.090;-115.340;2023-08-06T07:11:57;18.65;54.25
74540;SHT31;66042;51.090;-115.340;2023-08-06T07:14:25;18.65;54.37
74540;SHT31;66042;51.090;-115.340;2023-08-06T07:16:54;18.61;54.58
74540;SHT31;66042;51.090;-115.340;2023-08-06T07:19:21;18.57;54.76
74540;SHT31;66042;51.090;-115.340;2023-08-06T07:21:49;18.54;54.70
74540;SHT31;66042;51.090;-115.340;2023-08-06T07:24:16;18.51;54.78
74540;SHT31;66042;51.090;-115.340;2023-08-06T07:26:43;18.48;54.79
74540;SHT31;66042;51.090;-115.340;2023-08-06T07:29:10;18.46;54.85
74540;SHT31;66042;51.090;-115.340;2023-08-06T07:31:37;18.44;54.89
74540;SHT31;66042;51.090;-115.340;2023-08-06T07:34:04;18.39;55.20
74540;SHT31;66042;51.090;-115.340;2023-08-06T07:36:31;18.34;55.23
74540;SHT31;66042;51.090;-115.340;2023-08-06T07:38:59;18.30;55.42
74540;SHT31;66042;51.090;-115.340;2023-08-06T07:41:26;18.24;55.56
74540;SHT31;66042;51.090;-115.340;2023-08-06T07:43:53;18.19;55.47
74540;SHT31;66042;51.090;-115.340;2023-08-06T07:46:19;18.16;55.49
74540;SHT31;66042;51.090;-115.340;2023-08-06T07:48:46;18.07;56.01
74540;SHT31;66042;51.090;-115.340;2023-08-06T07:51:13;17.95;56.13
74540;SHT31;66042;51.090;-115.340;2023-08-06T07:53:40;17.93;56.05
74540;SHT31;66042;51.090;-115.340;2023-08-06T07:56:08;17.91;56.21
74540;SHT31;66042;51.090;-115.340;2023-08-06T07:58:34;17.83;56.43
74540;SHT31;66042;51.090;-115.340;2023-08-06T08:01:02;17.78;56.38
74540;SHT31;66042;51.090;-115.340;2023-08-06T08:03:29;17.76;56.39
74540;SHT31;66042;51.090;-115.340;2023-08-06T08:05:56;17.72;56.44
74540;SHT31;66042;51.090;-115.340;2023-08-06T08:08:23;17.68;56.40
74540;SHT31;66042;51.090;-115.340;2023-08-06T08:10:51;17.67;56.47
74540;SHT31;66042;51.090;-115.340;2023-08-06T08:13:18;17.61;56.64
74540;SHT31;66042;51.090;-115.340;2023-08-06T08:15:45;17.58;56.84
74540;SHT31;66042;51.090;-115.340;2023-08-06T08:18:12;17.51;57.07
74540;SHT31;66042;51.090;-115.340;2023-08-06T08:20:39;17.46;57.14
74540;SHT31;66042;51.090;-115.340;2023-08-06T08:23:06;17.43;57.20
74540;SHT31;66042;51.090;-115.340;2023-08-06T08:25:33;17.37;57.34
74540;SHT31;66042;51.090;-115.340;2023-08-06T08:28:00;17.26;57.39
74540;SHT31;66042;51.090;-115.340;2023-08-06T08:30:27;17.23;57.41
74540;SHT31;66042;51.090;-115.340;2023-08-06T08:32:55;17.18;57.47
74540;SHT31;66042;51.090;-115.340;2023-08-06T08:35:22;17.15;57.48
74540;SHT31;66042;51.090;-115.340;2023-08-06T08:37:50;17.11;57.62
74540;SHT31;66042;51.090;-115.340;2023-08-06T08:40:17;17.05;57.84
74540;SHT31;66042;51.090;-115.340;2023-08-06T08:42:45;16.99;58.02
74540;SHT31;66042;51.090;-115.340;2023-08-06T08:45:13;16.92;58.19
74540;SHT31;66042;51.090;-115.340;2023-08-06T08:47:41;16.89;58.19
74540;SHT31;66042;51.090;-115.340;2023-08-06T08:50:09;16.86;58.14
74540;SHT31;66042;51.090;-115.340;2023-08-06T08:52:38;16.81;58.23
74540;SHT31;66042;51.090;-115.340;2023-08-06T08:55:06;16.74;58.48
74540;SHT31;66042;51.090;-115.340;2023-08-06T08:57:34;16.68;58.50
74540;SHT31;66042;51.090;-115.340;2023-08-06T09:00:02;16.60;58.85
74540;SHT31;66042;51.090;-115.340;2023-08-06T09:02:30;16.46;59.03
74540;SHT31;66042;51.090;-115.340;2023-08-06T09:05:00;16.41;59.15
74540;SHT31;66042;51.090;-115.340;2023-08-06T09:07:35;16.31;59.29
74540;SHT31;66042;51.090;-115.340;2023-08-06T09:10:10;16.21;59.48
74540;SHT31;66042;51.090;-115.340;2023-08-06T09:12:40;16.16;59.48
74540;SHT31;66042;51.090;-115.340;2023-08-06T09:15:08;16.15;59.53
74540;SHT31;66042;51.090;-115.340;2023-08-06T09:17:36;16.10;59.52
74540;SHT31;66042;51.090;-115.340;2023-08-06T09:20:12;16.12;59.41
74540;SHT31;66042;51.090;-115.340;2023-08-06T09:22:40;16.15;59.40
74540;SHT31;66042;51.090;-115.340;2023-08-06T09:25:07;16.15;59.39
74540;SHT31;66042;51.090;-115.340;2023-08-06T09:27:39;16.12;59.60
74540;SHT31;66042;51.090;-115.340;2023-08-06T09:30:06;16.03;59.78
74540;SHT31;66042;51.090;-115.340;2023-08-06T09:32:46;15.99;59.83
74540;SHT31;66042;51.090;-115.340;2023-08-06T09:35:18;15.96;59.89
74540;SHT31;66042;51.090;-115.340;2023-08-06T09:37:45;15.92;59.92
74540;SHT31;66042;51.090;-115.340;2023-08-06T09:40:24;15.89;59.96
74540;SHT31;66042;51.090;-115.340;2023-08-06T09:42:57;15.83;60.23
74540;SHT31;66042;51.090;-115.340;2023-08-06T09:45:28;15.72;60.26
74540;SHT31;66042;51.090;-115.340;2023-08-06T09:48:08;15.74;60.09
74540;SHT31;66042;51.090;-115.340;2023-08-06T09:50:36;15.77;60.00
74540;SHT31;66042;51.090;-115.340;2023-08-06T09:53:08;15.74;60.03
74540;SHT31;66042;51.090;-115.340;2023-08-06T09:55:35;15.69;60.13
74540;SHT31;66042;51.090;-115.340;2023-08-06T09:58:02;15.59;60.31
74540;SHT31;66042;51.090;-115.340;2023-08-06T10:00:30;15.52;60.40
74540;SHT31;66042;51.090;-115.340;2023-08-06T10:03:00;15.52;60.32
74540;SHT31;66042;51.090;-115.340;2023-08-06T10:05:27;15.56;60.26
74540;SHT31;66042;51.090;-115.340;2023-08-06T10:07:57;15.59;60.20
74540;SHT31;66042;51.090;-115.340;2023-08-06T10:10:27;15.61;60.19
74540;SHT31;66042;51.090;-115.340;2023-08-06T10:12:56;15.56;60.48
74540;SHT31;66042;51.090;-115.340;2023-08-06T10:15:27;15.48;60.50
74540;SHT31;66042;51.090;-115.340;2023-08-06T10:17:58;15.47;60.34
74540;SHT31;66042;51.090;-115.340;2023-08-06T10:20:27;15.47;60.31
74540;SHT31;66042;51.090;-115.340;2023-08-06T10:23:04;15.47;60.23
74540;SHT31;66042;51.090;-115.340;2023-08-06T10:25:35;15.46;60.34
74540;SHT31;66042;51.090;-115.340;2023-08-06T10:28:10;15.41;60.46
74540;SHT31;66042;51.090;-115.340;2023-08-06T10:30:47;15.29;60.61
74540;SHT31;66042;51.090;-115.340;2023-08-06T10:33:15;15.27;60.55
74540;SHT31;66042;51.090;-115.340;2023-08-06T10:35:47;15.26;60.53
74540;SHT31;66042;51.090;-115.340;2023-08-06T10:38:16;15.24;60.59
74540;SHT31;66042;51.090;-115.340;2023-08-06T10:43:27;15.14;60.91
74540;SHT31;66042;51.090;-115.340;2023-08-06T10:46:03;15.10;60.89
74540;SHT31;66042;51.090;-115.340;2023-08-06T10:48:37;15.10;60.82
74540;SHT31;66042;51.090;-115.340;2023-08-06T10:51:11;15.07;60.95
74540;SHT31;66042;51.090;-115.340;2023-08-06T10:53:44;15.05;60.91
74540;SHT31;66042;51.090;-115.340;2023-08-06T10:56:17;15.03;60.94
74540;SHT31;66042;51.090;-115.340;2023-08-06T10:58:45;14.97;61.00
74540;SHT31;66042;51.090;-115.340;2023-08-06T11:01:13;14.89;61.18
74540;SHT31;66042;51.090;-115.340;2023-08-06T11:03:45;14.85;61.23
74540;SHT31;66042;51.090;-115.340;2023-08-06T11:06:19;14.78;61.37
74540;SHT31;66042;51.090;-115.340;2023-08-06T11:08:51;14.76;61.32
74540;SHT31;66042;51.090;-115.340;2023-08-06T11:11:20;14.74;61.44
74540;SHT31;66042;51.090;-115.340;2023-08-06T11:13:49;14.71;61.53
74540;SHT31;66042;51.090;-115.340;2023-08-06T11:16:19;14.64;61.86
74540;SHT31;66042;51.090;-115.340;2023-08-06T11:18:52;14.55;61.92
74540;SHT31;66042;51.090;-115.340;2023-08-06T11:21:21;14.55;61.95
74540;SHT31;66042;51.090;-115.340;2023-08-06T11:23:50;14.50;62.08
74540;SHT31;66042;51.090;-115.340;2023-08-06T11:26:22;14.45;62.08
74540;SHT31;66042;51.090;-115.340;2023-08-06T11:28:49;14.46;62.06
74540;SHT31;66042;51.090;-115.340;2023-08-06T11:31:20;14.44;62.13
74540;SHT31;66042;51.090;-115.340;2023-08-06T11:33:52;14.41;62.01
74540;SHT31;66042;51.090;-115.340;2023-08-06T11:36:29;14.40;61.90
74540;SHT31;66042;51.090;-115.340;2023-08-06T11:38:59;14.39;62.03
74540;SHT31;66042;51.090;-115.340;2023-08-06T11:41:28;14.32;62.23
74540;SHT31;66042;51.090;-115.340;2023-08-06T11:43:55;14.26;62.41
74540;SHT31;66042;51.090;-115.340;2023-08-06T11:46:26;14.22;62.45
74540;SHT31;66042;51.090;-115.340;2023-08-06T11:48:56;14.19;62.51
74540;SHT31;66042;51.090;-115.340;2023-08-06T11:51:28;14.13;62.63
74540;SHT31;66042;51.090;-115.340;2023-08-06T11:53:57;14.09;62.74
74540;SHT31;66042;51.090;-115.340;2023-08-06T11:56:25;14.04;62.81
74540;SHT31;66042;51.090;-115.340;2023-08-06T11:58:56;14.03;62.87
74540;SHT31;66042;51.090;-115.340;2023-08-06T12:01:23;13.99;62.79
74540;SHT31;66042;51.090;-115.340;2023-08-06T12:03:52;13.98;62.80
74540;SHT31;66042;51.090;-115.340;2023-08-06T12:06:28;13.95;62.86
74540;SHT31;66042;51.090;-115.340;2023-08-06T12:08:54;13.90;62.91
74540;SHT31;66042;51.090;-115.340;2023-08-06T12:11:21;13.87;62.94
74540;SHT31;66042;51.090;-115.340;2023-08-06T12:13:52;13.86;62.85
74540;SHT31;66042;51.090;-115.340;2023-08-06T12:16:22;13.81;63.04
74540;SHT31;66042;51.090;-115.340;2023-08-06T12:18:49;13.79;63.11
74540;SHT31;66042;51.090;-115.340;2023-08-06T12:21:16;13.77;63.28
74540;SHT31;66042;51.090;-115.340;2023-08-06T12:23:44;13.72;63.45
74540;SHT31;66042;51.090;-115.340;2023-08-06T12:26:11;13.64;63.66
74540;SHT31;66042;51.090;-115.340;2023-08-06T12:28:37;13.62;63.76
74540;SHT31;66042;51.090;-115.340;2023-08-06T12:31:04;13.63;63.72
74540;SHT31;66042;51.090;-115.340;2023-08-06T12:33:31;13.62;63.86
74540;SHT31;66042;51.090;-115.340;2023-08-06T12:35:58;13.59;63.92
74540;SHT31;66042;51.090;-115.340;2023-08-06T12:38:25;13.60;63.79
74540;SHT31;66042;51.090;-115.340;2023-08-06T12:40:52;13.61;63.75
74540;SHT31;66042;51.090;-115.340;2023-08-06T12:43:19;13.64;63.75
74540;SHT31;66042;51.090;-115.340;2023-08-06T12:45:46;13.63;63.76
74540;SHT31;66042;51.090;-115.340;2023-08-06T12:48:14;13.62;63.79
74540;SHT31;66042;51.090;-115.340;2023-08-06T12:50:44;13.61;63.89
74540;SHT31;66042;51.090;-115.340;2023-08-06T12:53:11;13.60;63.96
74540;SHT31;66042;51.090;-115.340;2023-08-06T12:55:38;13.59;63.94
74540;SHT31;66042;51.090;-115.340;2023-08-06T12:58:06;13.58;63.94
74540;SHT31;66042;51.090;-115.340;2023-08-06T13:00:33;13.59;64.04
74540;SHT31;66042;51.090;-115.340;2023-08-06T13:03:00;13.59;64.20
74540;SHT31;66042;51.090;-115.340;2023-08-06T13:05:28;13.57;64.42
74540;SHT31;66042;51.090;-115.340;2023-08-06T13:07:55;13.57;64.43
74540;SHT31;66042;51.090;-115.340;2023-08-06T13:10:22;13.57;64.56
74540;SHT31;66042;51.090;-115.340;2023-08-06T13:12:50;13.54;64.69
74540;SHT31;66042;51.090;-115.340;2023-08-06T13:15:17;13.53;64.73
74540;SHT31;66042;51.090;-115.340;2023-08-06T13:17:46;13.54;64.59
74540;SHT31;66042;51.090;-115.340;2023-08-06T13:20:13;13.60;64.39
74540;SHT31;66042;51.090;-115.340;2023-08-06T13:22:40;13.63;64.35
74540;SHT31;66042;51.090;-115.340;2023-08-06T13:25:07;13.64;64.30
74540;SHT31;66042;51.090;-115.340;2023-08-06T13:27:33;13.63;64.45
74540;SHT31;66042;51.090;-115.340;2023-08-06T13:30:00;13.65;64.42
74540;SHT31;66042;51.090;-115.340;2023-08-06T13:32:28;13.66;64.50
74540;SHT31;66042;51.090;-115.340;2023-08-06T13:34:55;13.64;64.64
74540;SHT31;66042;51.090;-115.340;2023-08-06T13:37:23;13.63;64.73
74540;SHT31;66042;51.090;-115.340;2023-08-06T13:39:50;13.64;64.76
74540;SHT31;66042;51.090;-115.340;2023-08-06T13:42:17;13.65;64.73
74540;SHT31;66042;51.090;-115.340;2023-08-06T13:44:44;13.66;64.76
74540;SHT31;66042;51.090;-115.340;2023-08-06T13:47:11;13.68;64.87
74540;SHT31;66042;51.090;-115.340;2023-08-06T13:49:38;13.68;65.01
74540;SHT31;66042;51.090;-115.340;2023-08-06T13:52:05;13.70;65.04
74540;SHT31;66042;51.090;-115.340;2023-08-06T13:54:32;13.72;65.06
74540;SHT31;66042;51.090;-115.340;2023-08-06T13:56:59;13.73;65.02
74540;SHT31;66042;51.090;-115.340;2023-08-06T13:59:26;13.77;65.01
74540;SHT31;66042;51.090;-115.340;2023-08-06T14:01:54;13.82;65.03
74540;SHT31;66042;51.090;-115.340;2023-08-06T14:04:25;13.82;65.22
74540;SHT31;66042;51.090;-115.340;2023-08-06T14:06:51;13.82;65.28
74540;SHT31;66042;51.090;-115.340;2023-08-06T14:09:21;13.84;65.12
74540;SHT31;66042;51.090;-115.340;2023-08-06T14:11:48;13.89;65.07
74540;SHT31;66042;51.090;-115.340;2023-08-06T14:14:15;13.94;64.81
74540;SHT31;66042;51.090;-115.340;2023-08-06T14:16:42;13.98;64.87
74540;SHT31;66042;51.090;-115.340;2023-08-06T14:19:09;14.01;64.71
74540;SHT31;66042;51.090;-115.340;2023-08-06T14:21:36;14.06;64.70
74540;SHT31;66042;51.090;-115.340;2023-08-06T14:24:03;14.08;64.69
74540;SHT31;66042;51.090;-115.340;2023-08-06T14:26:30;14.11;64.77
74540;SHT31;66042;51.090;-115.340;2023-08-06T14:28:57;14.15;64.68
74540;SHT31;66042;51.090;-115.340;2023-08-06T14:31:23;14.20;64.63
74540;SHT31;66042;51.090;-115.340;2023-08-06T14:33:51;14.26;64.60
74540;SHT31;66042;51.090;-115.340;2023-08-06T14:36:18;14.30;64.71
74540;SHT31;66042;51.090;-115.340;2023-08-06T14:38:46;14.34;64.68
74540;SHT31;66042;51.090;-115.340;2023-08-06T14:41:13;14.39;64.88
74540;SHT31;66042;51.090;-115.340;2023-08-06T14:43:40;14.37;65.01
74540;SHT31;66042;51.090;-115.340;2023-08-06T14:46:06;14.39;65.13
74540;SHT31;66042;51.090;-115.340;2023-08-06T14:48:33;14.42;65.12
74540;SHT31;66042;51.090;-115.340;2023-08-06T14:51:01;14.42;65.02
74540;SHT31;66042;51.090;-115.340;2023-08-06T14:53:28;14.47;64.87
74540;SHT31;66042;51.090;-115.340;2023-08-06T14:55:55;14.49;64.76
74540;SHT31;66042;51.090;-115.340;2023-08-06T14:58:21;14.54;64.48
74540;SHT31;66042;51.090;-115.340;2023-08-06T15:00:49;14.59;64.82